sensor_id;sensor_type;location;lat;lon;timestamp;pressure;altitude;pressure_sealevel;temperature;humidity
52032;BME280;38044;45.148;39.604;2022-07-05T00:02:21;101006.19;;;18.63;77.95
52032;BME280;38044;45.148;39.604;2022-07-05T00:04:47;101018.09;;;18.71;77.88
52032;BME280;38044;45.148;39.604;2022-07-05T00:07:13;100949.78;;;18.31;78.00
52032;BME280;38044;45.148;39.604;2022-07-05T00:09:53;101008.56;;;18.65;78.60
52032;BME280;38044;45.148;39.604;2022-07-05T00:12:21;101024.06;;;18.52;78.69
52032;BME280;38044;45.148;39.604;2022-07-05T00:14:49;101022.91;;;18.53;79.20
52032;BME280;38044;45.148;39.604;2022-07-05T00:17:15;101024.53;;;18.54;78.96
52032;BME280;38044;45.148;39.604;2022-07-05T00:19:41;101028.47;;;18.57;79.07
52032;BME280;38044;45.148;39.604;2022-07-05T00:22:07;100945.34;;;18.05;79.03
52032;BME280;38044;45.148;39.604;2022-07-05T00:24:33;101026.78;;;18.52;78.95
52032;BME280;38044;45.148;39.604;2022-07-05T00:27:01;100966.00;;;18.06;79.11
52032;BME280;38044;45.148;39.604;2022-07-05T00:29:28;100997.84;;;18.27;79.20
52032;BME280;38044;45.148;39.604;2022-07-05T00:31:54;101014.97;;;18.27;79.35
52032;BME280;38044;45.148;39.604;2022-07-05T00:34:20;101016.41;;;18.45;79.29
52032;BME280;38044;45.148;39.604;2022-07-05T00:36:46;100922.59;;;17.89;78.85
52032;BME280;38044;45.148;39.604;2022-07-05T00:39:12;100940.50;;;18.11;77.98
52032;BME280;38044;45.148;39.604;2022-07-05T00:41:38;101016.94;;;18.60;77.74
52032;BME280;38044;45.148;39.604;2022-07-05T00:44:07;100954.03;;;18.19;77.64
52032;BME280;38044;45.148;39.604;2022-07-05T00:46:34;101027.31;;;18.66;77.33
52032;BME280;38044;45.148;39.604;2022-07-05T00:49:01;100924.97;;;17.90;77.58
52032;BME280;38044;45.148;39.604;2022-07-05T00:51:31;101014.50;;;18.46;78.39
52032;BME280;38044;45.148;39.604;2022-07-05T00:53:57;101036.06;;;18.51;78.66
52032;BME280;38044;45.148;39.604;2022-07-05T00:56:24;101025.72;;;18.44;78.94
52032;BME280;38044;45.148;39.604;2022-07-05T00:58:51;101017.63;;;18.36;79.16
52032;BME280;38044;45.148;39.604;2022-07-05T01:01:18;101018.94;;;18.30;78.55
52032;BME280;38044;45.148;39.604;2022-07-05T01:03:44;101040.59;;;18.47;78.92
52032;BME280;38044;45.148;39.604;2022-07-05T01:06:11;101047.63;;;18.48;78.80
52032;BME280;38044;45.148;39.604;2022-07-05T01:08:40;101023.72;;;18.33;78.77
52032;BME280;38044;45.148;39.604;2022-07-05T01:11:07;101050.34;;;18.48;78.84
52032;BME280;38044;45.148;39.604;2022-07-05T01:13:34;100960.94;;;17.96;78.52
52032;BME280;38044;45.148;39.604;2022-07-05T01:16:01;100967.44;;;18.04;79.10
52032;BME280;38044;45.148;39.604;2022-07-05T01:18:28;101048.56;;;18.52;78.90
52032;BME280;38044;45.148;39.604;2022-07-05T01:20:54;101039.13;;;18.50;78.82
52032;BME280;38044;45.148;39.604;2022-07-05T01:23:22;101042.44;;;18.55;78.69
52032;BME280;38044;45.148;39.604;2022-07-05T01:25:48;101049.47;;;18.56;78.62
52032;BME280;38044;45.148;39.604;2022-07-05T01:28:15;100956.16;;;17.93;78.60
52032;BME280;38044;45.148;39.604;2022-07-05T01:30:42;100939.44;;;17.82;78.50
52032;BME280;38044;45.148;39.604;2022-07-05T01:33:08;101030.31;;;18.32;78.52
52032;BME280;38044;45.148;39.604;2022-07-05T01:35:36;101013.22;;;18.22;78.51
52032;BME280;38044;45.148;39.604;2022-07-05T01:38:02;101031.94;;;18.24;78.42
52032;BME280;38044;45.148;39.604;2022-07-05T01:40:29;101057.97;;;18.34;78.87
52032;BME280;38044;45.148;39.604;2022-07-05T01:42:55;101061.16;;;18.36;78.41
52032;BME280;38044;45.148;39.604;2022-07-05T01:45:21;101066.59;;;18.36;78.33
52032;BME280;38044;45.148;39.604;2022-07-05T01:48:15;101053.06;;;18.27;77.95
52032;BME280;38044;45.148;39.604;2022-07-05T01:50:46;101002.22;;;17.98;78.24
52032;BME280;38044;45.148;39.604;2022-07-05T01:53:33;101061.16;;;18.36;78.44
52032;BME280;38044;45.148;39.604;2022-07-05T01:56:02;101037.38;;;18.03;78.42
52032;BME280;38044;45.148;39.604;2022-07-05T01:58:30;101065.22;;;18.30;78.38
52032;BME280;38044;45.148;39.604;2022-07-05T02:00:57;100986.00;;;17.81;77.95
52032;BME280;38044;45.148;39.604;2022-07-05T02:03:24;101064.06;;;18.31;78.00
52032;BME280;38044;45.148;39.604;2022-07-05T02:05:50;101064.72;;;18.28;78.00
52032;BME280;38044;45.148;39.604;2022-07-05T02:08:17;100976.22;;;17.79;77.77
52032;BME280;38044;45.148;39.604;2022-07-05T02:10:44;101077.44;;;18.44;77.99
52032;BME280;38044;45.148;39.604;2022-07-05T02:13:10;101016.81;;;18.14;77.27
52032;BME280;38044;45.148;39.604;2022-07-05T02:15:38;101042.41;;;18.43;77.51
52032;BME280;38044;45.148;39.604;2022-07-05T02:18:06;101073.25;;;18.68;76.96
52032;BME280;38044;45.148;39.604;2022-07-05T02:20:32;101065.28;;;18.84;76.75
52032;BME280;38044;45.148;39.604;2022-07-05T02:22:58;101063.28;;;18.93;76.33
52032;BME280;38044;45.148;39.604;2022-07-05T02:25:24;101041.75;;;19.00;75.90
52032;BME280;38044;45.148;39.604;2022-07-05T02:27:52;100987.94;;;18.97;74.48
52032;BME280;38044;45.148;39.604;2022-07-05T02:30:18;101046.44;;;19.70;73.65
52032;BME280;38044;45.148;39.604;2022-07-05T02:32:44;101041.88;;;19.74;73.19
52032;BME280;38044;45.148;39.604;2022-07-05T02:35:10;101049.03;;;19.78;73.29
52032;BME280;38044;45.148;39.604;2022-07-05T02:37:37;101074.16;;;19.96;73.17
52032;BME280;38044;45.148;39.604;2022-07-05T02:40:06;100992.31;;;19.59;72.55
52032;BME280;38044;45.148;39.604;2022-07-05T02:42:33;101080.88;;;20.52;71.33
52032;BME280;38044;45.148;39.604;2022-07-05T02:44:59;101081.88;;;21.00;69.84
52032;BME280;38044;45.148;39.604;2022-07-05T02:47:24;101078.31;;;21.27;68.62
52032;BME280;38044;45.148;39.604;2022-07-05T02:49:50;100988.16;;;20.83;67.87
52032;BME280;38044;45.148;39.604;2022-07-05T02:52:17;101080.66;;;21.73;66.45
52032;BME280;38044;45.148;39.604;2022-07-05T02:54:43;101057.28;;;21.59;66.37
52032;BME280;38044;45.148;39.604;2022-07-05T02:57:09;101055.75;;;21.30;67.21
52032;BME280;38044;45.148;39.604;2022-07-05T02:59:34;101068.72;;;21.18;68.12
52032;BME280;38044;45.148;39.604;2022-07-05T03:02:00;101078.28;;;21.40;68.04
52032;BME280;38044;45.148;39.604;2022-07-05T03:04:26;101076.75;;;21.26;68.21
52032;BME280;38044;45.148;39.604;2022-07-05T03:06:52;101077.06;;;21.09;68.87
52032;BME280;38044;45.148;39.604;2022-07-05T03:09:18;101068.91;;;20.97;69.28
52032;BME280;38044;45.148;39.604;2022-07-05T03:11:44;101073.03;;;20.90;70.02
52032;BME280;38044;45.148;39.604;2022-07-05T03:14:10;101072.34;;;20.93;70.02
52032;BME280;38044;45.148;39.604;2022-07-05T03:16:36;101053.84;;;21.03;69.37
52032;BME280;38044;45.148;39.604;2022-07-05T03:19:04;101049.03;;;21.12;69.27
52032;BME280;38044;45.148;39.604;2022-07-05T03:21:30;101071.69;;;21.41;69.04
52032;BME280;38044;45.148;39.604;2022-07-05T03:23:55;101080.84;;;21.64;68.80
52032;BME280;38044;45.148;39.604;2022-07-05T03:26:21;101057.81;;;21.65;68.75
52032;BME280;38044;45.148;39.604;2022-07-05T03:28:47;100993.25;;;21.45;68.45
52032;BME280;38044;45.148;39.604;2022-07-05T03:31:13;101056.59;;;22.30;67.59
52032;BME280;38044;45.148;39.604;2022-07-05T03:33:39;101046.47;;;23.11;65.55
52032;BME280;38044;45.148;39.604;2022-07-05T03:36:05;101078.25;;;24.65;62.21
52032;BME280;38044;45.148;39.604;2022-07-05T03:38:31;101050.75;;;25.39;59.07
52032;BME280;38044;45.148;39.604;2022-07-05T03:40:58;101057.59;;;25.63;58.78
52032;BME280;38044;45.148;39.604;2022-07-05T03:43:25;101051.19;;;25.45;59.00
52032;BME280;38044;45.148;39.604;2022-07-05T03:45:51;101078.88;;;26.18;57.73
52032;BME280;38044;45.148;39.604;2022-07-05T03:48:17;101074.16;;;27.28;55.51
52032;BME280;38044;45.148;39.604;2022-07-05T03:50:42;101087.06;;;28.38;52.91
52032;BME280;38044;45.148;39.604;2022-07-05T03:53:12;101077.78;;;28.84;50.79
52032;BME280;38044;45.148;39.604;2022-07-05T03:55:38;101081.81;;;28.76;50.88
52032;BME280;38044;45.148;39.604;2022-07-05T03:58:04;101031.56;;;28.85;50.23
52032;BME280;38044;45.148;39.604;2022-07-05T04:00:31;101082.84;;;29.56;49.77
52032;BME280;38044;45.148;39.604;2022-07-05T04:02:59;101076.03;;;29.15;49.57
52032;BME280;38044;45.148;39.604;2022-07-05T04:05:25;101064.63;;;28.22;51.71
52032;BME280;38044;45.148;39.604;2022-07-05T04:07:53;101071.00;;;27.54;53.98
52032;BME280;38044;45.148;39.604;2022-07-05T04:10:20;101073.38;;;27.31;55.02
52032;BME280;38044;45.148;39.604;2022-07-05T04:12:46;101076.94;;;27.71;54.76
52032;BME280;38044;45.148;39.604;2022-07-05T04:15:15;101072.88;;;28.29;53.13
52032;BME280;38044;45.148;39.604;2022-07-05T04:17:51;101080.25;;;28.64;52.59
52032;BME280;38044;45.148;39.604;2022-07-05T04:20:17;101058.88;;;28.79;52.48
52032;BME280;38044;45.148;39.604;2022-07-05T04:22:43;101065.78;;;29.68;50.75
52032;BME280;38044;45.148;39.604;2022-07-05T04:25:10;101088.50;;;30.93;47.99
52032;BME280;38044;45.148;39.604;2022-07-05T04:30:11;101080.47;;;32.40;45.01
52032;BME280;38044;45.148;39.604;2022-07-05T04:32:37;101064.63;;;32.93;43.48
52032;BME280;38044;45.148;39.604;2022-07-05T04:35:03;101103.06;;;33.83;42.45
52032;BME280;38044;45.148;39.604;2022-07-05T04:37:29;101044.22;;;33.94;41.44
52032;BME280;38044;45.148;39.604;2022-07-05T04:39:55;101085.41;;;34.45;40.98
52032;BME280;38044;45.148;39.604;2022-07-05T04:42:20;101077.75;;;35.38;39.61
52032;BME280;38044;45.148;39.604;2022-07-05T04:44:46;101079.56;;;36.15;38.38
52032;BME280;38044;45.148;39.604;2022-07-05T04:47:12;101090.19;;;36.51;37.29
52032;BME280;38044;45.148;39.604;2022-07-05T04:49:38;101088.09;;;36.64;37.41
52032;BME280;38044;45.148;39.604;2022-07-05T04:52:05;101093.19;;;36.88;36.41
52032;BME280;38044;45.148;39.604;2022-07-05T04:54:30;101086.19;;;36.83;36.46
52032;BME280;38044;45.148;39.604;2022-07-05T04:56:56;101098.25;;;37.52;35.65
52032;BME280;38044;45.148;39.604;2022-07-05T04:59:22;101082.03;;;37.74;35.10
52032;BME280;38044;45.148;39.604;2022-07-05T05:01:48;101056.78;;;37.74;34.67
52032;BME280;38044;45.148;39.604;2022-07-05T05:04:14;101096.06;;;37.93;34.96
52032;BME280;38044;45.148;39.604;2022-07-05T05:06:40;101092.63;;;38.16;34.64
52032;BME280;38044;45.148;39.604;2022-07-05T05:09:05;101102.59;;;38.26;33.62
52032;BME280;38044;45.148;39.604;2022-07-05T05:11:31;101094.09;;;38.63;33.32
52032;BME280;38044;45.148;39.604;2022-07-05T05:13:57;101058.59;;;38.84;31.53
52032;BME280;38044;45.148;39.604;2022-07-05T05:16:23;101053.44;;;38.83;31.92
52032;BME280;38044;45.148;39.604;2022-07-05T05:18:49;101093.75;;;39.37;31.42
52032;BME280;38044;45.148;39.604;2022-07-05T05:21:15;101054.50;;;39.18;31.44
52032;BME280;38044;45.148;39.604;2022-07-05T05:23:41;101085.97;;;39.80;31.02
52032;BME280;38044;45.148;39.604;2022-07-05T05:26:07;101091.19;;;39.72;31.35
52032;BME280;38044;45.148;39.604;2022-07-05T05:28:33;101071.50;;;39.48;31.20
52032;BME280;38044;45.148;39.604;2022-07-05T05:30:59;101046.97;;;39.25;31.19
52032;BME280;38044;45.148;39.604;2022-07-05T05:33:25;101033.56;;;39.82;31.15
52032;BME280;38044;45.148;39.604;2022-07-05T05:35:51;101020.47;;;39.40;30.65
52032;BME280;38044;45.148;39.604;2022-07-05T05:38:16;101030.00;;;39.82;30.45
52032;BME280;38044;45.148;39.604;2022-07-05T05:40:42;101090.28;;;40.35;30.26
52032;BME280;38044;45.148;39.604;2022-07-05T05:43:10;101003.41;;;40.27;29.60
52032;BME280;38044;45.148;39.604;2022-07-05T05:45:36;101075.84;;;41.07;29.79
52032;BME280;38044;45.148;39.604;2022-07-05T05:48:03;101062.94;;;41.20;28.35
52032;BME280;38044;45.148;39.604;2022-07-05T05:50:34;101094.41;;;40.98;28.38
52032;BME280;38044;45.148;39.604;2022-07-05T05:53:00;101051.59;;;40.80;28.26
52032;BME280;38044;45.148;39.604;2022-07-05T05:55:28;101065.47;;;40.83;28.73
52032;BME280;38044;45.148;39.604;2022-07-05T05:57:54;101023.88;;;40.43;28.38
52032;BME280;38044;45.148;39.604;2022-07-05T06:00:22;101086.94;;;40.95;27.77
52032;BME280;38044;45.148;39.604;2022-07-05T06:02:49;101098.38;;;40.92;28.53
52032;BME280;38044;45.148;39.604;2022-07-05T06:05:16;101091.78;;;41.10;27.57
52032;BME280;38044;45.148;39.604;2022-07-05T06:07:55;101073.66;;;41.57;27.21
52032;BME280;38044;45.148;39.604;2022-07-05T06:10:29;101073.13;;;41.18;26.82
52032;BME280;38044;45.148;39.604;2022-07-05T06:12:57;101060.06;;;41.00;26.96
52032;BME280;38044;45.148;39.604;2022-07-05T06:15:23;101034.63;;;40.94;26.42
52032;BME280;38044;45.148;39.604;2022-07-05T06:17:49;101081.41;;;41.62;25.92
52032;BME280;38044;45.148;39.604;2022-07-05T06:20:17;101019.84;;;41.40;25.56
52032;BME280;38044;45.148;39.604;2022-07-05T06:22:44;101074.00;;;41.65;26.13
52032;BME280;38044;45.148;39.604;2022-07-05T06:25:10;101036.91;;;41.52;26.93
52032;BME280;38044;45.148;39.604;2022-07-05T06:27:41;101078.66;;;42.46;25.74
52032;BME280;38044;45.148;39.604;2022-07-05T06:30:08;101029.06;;;42.40;25.35
52032;BME280;38044;45.148;39.604;2022-07-05T06:32:34;101074.22;;;42.71;24.77
52032;BME280;38044;45.148;39.604;2022-07-05T06:35:00;101059.28;;;43.08;23.88
52032;BME280;38044;45.148;39.604;2022-07-05T06:37:26;101072.91;;;43.04;24.06
52032;BME280;38044;45.148;39.604;2022-07-05T06:39:52;101023.75;;;42.53;24.68
52032;BME280;38044;45.148;39.604;2022-07-05T06:42:18;101076.19;;;42.97;23.89
52032;BME280;38044;45.148;39.604;2022-07-05T06:44:43;101052.34;;;42.66;27.80
52032;BME280;38044;45.148;39.604;2022-07-05T06:47:09;101053.44;;;42.74;28.08
52032;BME280;38044;45.148;39.604;2022-07-05T06:49:35;101035.38;;;42.66;27.57
52032;BME280;38044;45.148;39.604;2022-07-05T06:52:01;101068.28;;;43.12;27.21
52032;BME280;38044;45.148;39.604;2022-07-05T06:54:27;101009.78;;;42.81;27.91
52032;BME280;38044;45.148;39.604;2022-07-05T06:56:53;101008.59;;;42.93;27.10
52032;BME280;38044;45.148;39.604;2022-07-05T06:59:21;101058.28;;;43.11;27.21
52032;BME280;38044;45.148;39.604;2022-07-05T07:01:48;101000.47;;;42.69;28.15
52032;BME280;38044;45.148;39.604;2022-07-05T07:04:14;101021.38;;;42.83;27.90
52032;BME280;38044;45.148;39.604;2022-07-05T07:06:40;101069.72;;;43.39;27.48
52032;BME280;38044;45.148;39.604;2022-07-05T07:09:05;100979.94;;;43.29;26.60
52032;BME280;38044;45.148;39.604;2022-07-05T07:11:44;101026.28;;;43.48;26.76
52032;BME280;38044;45.148;39.604;2022-07-05T07:14:11;101046.94;;;43.71;26.59
52032;BME280;38044;45.148;39.604;2022-07-05T07:16:36;100971.84;;;42.99;27.23
52032;BME280;38044;45.148;39.604;2022-07-05T07:19:02;101015.47;;;43.52;27.31
52032;BME280;38044;45.148;39.604;2022-07-05T07:21:28;101030.72;;;43.60;26.77
52032;BME280;38044;45.148;39.604;2022-07-05T07:23:54;101056.97;;;43.67;26.94
52032;BME280;38044;45.148;39.604;2022-07-05T07:26:20;100969.53;;;43.03;27.30
52032;BME280;38044;45.148;39.604;2022-07-05T07:28:46;101060.06;;;43.69;27.32
52032;BME280;38044;45.148;39.604;2022-07-05T07:31:12;101048.88;;;43.37;26.80
52032;BME280;38044;45.148;39.604;2022-07-05T07:33:38;100990.59;;;42.96;27.17
52032;BME280;38044;45.148;39.604;2022-07-05T07:36:04;100997.31;;;43.05;27.21
52032;BME280;38044;45.148;39.604;2022-07-05T07:38:30;100982.84;;;42.86;27.51
52032;BME280;38044;45.148;39.604;2022-07-05T07:40:56;101007.97;;;43.38;26.82
52032;BME280;38044;45.148;39.604;2022-07-05T07:43:22;101023.44;;;43.42;26.04
52032;BME280;38044;45.148;39.604;2022-07-05T07:45:48;100969.78;;;42.94;26.22
52032;BME280;38044;45.148;39.604;2022-07-05T07:48:14;100987.00;;;42.90;26.41
52032;BME280;38044;45.148;39.604;2022-07-05T07:50:40;101012.47;;;43.02;26.51
52032;BME280;38044;45.148;39.604;2022-07-05T07:53:06;101024.53;;;43.56;26.54
52032;BME280;38044;45.148;39.604;2022-07-05T07:55:32;101038.19;;;43.86;23.89
52032;BME280;38044;45.148;39.604;2022-07-05T07:57:57;100990.59;;;43.68;23.78
52032;BME280;38044;45.148;39.604;2022-07-05T08:00:23;101034.34;;;43.89;21.54
52032;BME280;38044;45.148;39.604;2022-07-05T08:02:49;100972.09;;;42.90;22.34
52032;BME280;38044;45.148;39.604;2022-07-05T08:05:15;101023.09;;;43.18;22.76
52032;BME280;38044;45.148;39.604;2022-07-05T08:07:41;100994.94;;;42.92;23.07
52032;BME280;38044;45.148;39.604;2022-07-05T08:10:07;101003.13;;;43.38;24.25
52032;BME280;38044;45.148;39.604;2022-07-05T08:12:33;101023.38;;;43.26;22.55
52032;BME280;38044;45.148;39.604;2022-07-05T08:14:59;100978.38;;;42.68;24.92
52032;BME280;38044;45.148;39.604;2022-07-05T08:17:25;100962.16;;;42.25;23.59
52032;BME280;38044;45.148;39.604;2022-07-05T08:19:51;100998.31;;;42.53;24.85
52032;BME280;38044;45.148;39.604;2022-07-05T08:22:35;100993.97;;;42.58;24.57
52032;BME280;38044;45.148;39.604;2022-07-05T08:25:02;101023.34;;;43.14;24.02
52032;BME280;38044;45.148;39.604;2022-07-05T08:27:28;100953.03;;;42.79;24.16
52032;BME280;38044;45.148;39.604;2022-07-05T08:29:54;101003.81;;;43.16;23.82
52032;BME280;38044;45.148;39.604;2022-07-05T08:32:20;100929.88;;;42.75;24.86
52032;BME280;38044;45.148;39.604;2022-07-05T08:34:46;101001.81;;;43.28;24.36
52032;BME280;38044;45.148;39.604;2022-07-05T08:37:12;100977.38;;;43.25;24.39
52032;BME280;38044;45.148;39.604;2022-07-05T08:39:37;100998.97;;;43.34;24.94
52032;BME280;38044;45.148;39.604;2022-07-05T08:42:08;100995.66;;;43.52;24.61
52032;BME280;38044;45.148;39.604;2022-07-05T08:44:38;100974.56;;;43.36;24.32
52032;BME280;38044;45.148;39.604;2022-07-05T08:47:09;101007.03;;;43.63;24.59
52032;BME280;38044;45.148;39.604;2022-07-05T08:49:37;100992.50;;;43.16;24.51
52032;BME280;38044;45.148;39.604;2022-07-05T08:52:04;100943.41;;;42.65;24.80
52032;BME280;38044;45.148;39.604;2022-07-05T08:54:32;100936.47;;;42.66;25.64
52032;BME280;38044;45.148;39.604;2022-07-05T08:56:59;101001.19;;;43.07;25.52
52032;BME280;38044;45.148;39.604;2022-07-05T08:59:25;100991.03;;;42.78;24.54
52032;BME280;38044;45.148;39.604;2022-07-05T09:01:52;100938.75;;;42.19;24.79
52032;BME280;38044;45.148;39.604;2022-07-05T09:04:19;100979.59;;;42.56;24.31
52032;BME280;38044;45.148;39.604;2022-07-05T09:06:47;100989.81;;;42.47;24.71
52032;BME280;38044;45.148;39.604;2022-07-05T09:09:16;100961.72;;;42.01;25.50
52032;BME280;38044;45.148;39.604;2022-07-05T09:11:44;101013.53;;;42.29;24.63
52032;BME280;38044;45.148;39.604;2022-07-05T09:14:21;100946.50;;;41.40;23.84
52032;BME280;38044;45.148;39.604;2022-07-05T09:16:48;100994.34;;;41.09;26.11
52032;BME280;38044;45.148;39.604;2022-07-05T09:19:14;100920.47;;;41.05;25.06
52032;BME280;38044;45.148;39.604;2022-07-05T09:21:40;100896.34;;;41.04;26.41
52032;BME280;38044;45.148;39.604;2022-07-05T09:24:08;100993.53;;;41.96;26.39
52032;BME280;38044;45.148;39.604;2022-07-05T09:26:35;100943.31;;;41.79;26.09
52032;BME280;38044;45.148;39.604;2022-07-05T09:29:08;100919.81;;;41.62;26.04
52032;BME280;38044;45.148;39.604;2022-07-05T09:31:41;100994.63;;;42.09;25.35
52032;BME280;38044;45.148;39.604;2022-07-05T09:34:09;100929.56;;;41.40;26.55
52032;BME280;38044;45.148;39.604;2022-07-05T09:36:57;100992.88;;;42.12;26.66
52032;BME280;38044;45.148;39.604;2022-07-05T09:42:22;100988.34;;;41.01;26.37
52032;BME280;38044;45.148;39.604;2022-07-05T09:44:53;100946.84;;;39.81;26.93
52032;BME280;38044;45.148;39.604;2022-07-05T09:47:24;100969.50;;;39.48;29.09
52032;BME280;38044;45.148;39.604;2022-07-05T09:49:52;100980.06;;;38.90;28.50
52032;BME280;38044;45.148;39.604;2022-07-05T09:52:37;100915.72;;;38.35;28.74
52032;BME280;38044;45.148;39.604;2022-07-05T09:55:12;100972.31;;;38.09;31.43
52032;BME280;38044;45.148;39.604;2022-07-05T09:57:40;100959.56;;;37.71;31.26
52032;BME280;38044;45.148;39.604;2022-07-05T10:00:14;100926.69;;;36.98;30.26
52032;BME280;38044;45.148;39.604;2022-07-05T10:02:52;100967.25;;;36.66;32.82
52032;BME280;38044;45.148;39.604;2022-07-05T10:05:24;100940.13;;;36.53;32.28
52032;BME280;38044;45.148;39.604;2022-07-05T10:07:57;100946.94;;;36.43;31.00
52032;BME280;38044;45.148;39.604;2022-07-05T10:10:28;100957.88;;;35.97;31.19
52032;BME280;38044;45.148;39.604;2022-07-05T10:12:56;100948.44;;;35.82;30.94
52032;BME280;38044;45.148;39.604;2022-07-05T10:15:28;100960.59;;;36.10;33.13
52032;BME280;38044;45.148;39.604;2022-07-05T10:18:20;100960.75;;;36.78;32.03
52032;BME280;38044;45.148;39.604;2022-07-05T10:20:49;100954.22;;;36.90;32.12
52032;BME280;38044;45.148;39.604;2022-07-05T10:23:18;100954.53;;;36.83;32.78
52032;BME280;38044;45.148;39.604;2022-07-05T10:25:46;100956.53;;;36.73;33.37
52032;BME280;38044;45.148;39.604;2022-07-05T10:28:15;100951.56;;;36.78;32.36
52032;BME280;38044;45.148;39.604;2022-07-05T10:30:41;100937.69;;;36.65;32.01
52032;BME280;38044;45.148;39.604;2022-07-05T10:33:11;100951.25;;;36.35;31.78
52032;BME280;38044;45.148;39.604;2022-07-05T10:35:42;100944.81;;;36.57;32.84
52032;BME280;38044;45.148;39.604;2022-07-05T10:38:09;100860.25;;;35.59;30.67
52032;BME280;38044;45.148;39.604;2022-07-05T10:40:36;100920.81;;;35.40;30.66
52032;BME280;38044;45.148;39.604;2022-07-05T10:43:03;100918.84;;;35.28;32.25
52032;BME280;38044;45.148;39.604;2022-07-05T10:45:31;100943.97;;;35.62;31.77
52032;BME280;38044;45.148;39.604;2022-07-05T10:48:13;100926.94;;;35.92;31.18
52032;BME280;38044;45.148;39.604;2022-07-05T10:50:46;100933.94;;;35.96;32.38
52032;BME280;38044;45.148;39.604;2022-07-05T10:53:17;100939.28;;;35.81;31.87
52032;BME280;38044;45.148;39.604;2022-07-05T11:06:43;100916.63;;;35.23;32.88
52032;BME280;38044;45.148;39.604;2022-07-05T11:11:40;100857.66;;;34.25;32.75
52032;BME280;38044;45.148;39.604;2022-07-05T11:17:09;100910.38;;;34.45;33.82
52032;BME280;38044;45.148;39.604;2022-07-05T11:20:02;100932.28;;;34.72;32.82
52032;BME280;38044;45.148;39.604;2022-07-05T11:22:29;100893.47;;;34.40;32.59
52032;BME280;38044;45.148;39.604;2022-07-05T11:24:59;100908.41;;;34.33;31.99
52032;BME280;38044;45.148;39.604;2022-07-05T11:27:25;100897.53;;;33.97;31.95
52032;BME280;38044;45.148;39.604;2022-07-05T11:29:53;100850.97;;;33.68;31.77
52032;BME280;38044;45.148;39.604;2022-07-05T11:34:55;100903.59;;;34.34;32.91
52032;BME280;38044;45.148;39.604;2022-07-05T11:37:24;100881.72;;;34.19;31.89
52032;BME280;38044;45.148;39.604;2022-07-05T11:42:49;100907.28;;;34.30;31.44
52032;BME280;38044;45.148;39.604;2022-07-05T11:45:15;100898.28;;;33.84;31.53
52032;BME280;38044;45.148;39.604;2022-07-05T11:47:42;100882.41;;;33.56;31.98
52032;BME280;38044;45.148;39.604;2022-07-05T11:50:09;100906.81;;;33.52;31.19
52032;BME280;38044;45.148;39.604;2022-07-05T11:52:37;100828.22;;;33.15;31.35
52032;BME280;38044;45.148;39.604;2022-07-05T11:55:05;100820.22;;;33.17;33.22
52032;BME280;38044;45.148;39.604;2022-07-05T11:57:31;100851.16;;;33.48;32.48
52032;BME280;38044;45.148;39.604;2022-07-05T11:59:58;100878.66;;;33.62;33.16
52032;BME280;38044;45.148;39.604;2022-07-05T12:02:23;100873.66;;;33.41;32.50
52032;BME280;38044;45.148;39.604;2022-07-05T12:04:54;100820.53;;;33.19;31.56
52032;BME280;38044;45.148;39.604;2022-07-05T12:07:27;100871.50;;;33.61;31.43
52032;BME280;38044;45.148;39.604;2022-07-05T12:09:53;100833.88;;;33.40;32.09
52032;BME280;38044;45.148;39.604;2022-07-05T12:12:38;100791.19;;;33.02;31.77
52032;BME280;38044;45.148;39.604;2022-07-05T12:15:15;100840.09;;;33.32;31.12
52032;BME280;38044;45.148;39.604;2022-07-05T12:17:43;100874.03;;;33.56;30.72
52032;BME280;38044;45.148;39.604;2022-07-05T12:20:12;100846.91;;;33.43;31.52
52032;BME280;38044;45.148;39.604;2022-07-05T12:22:43;100868.06;;;33.41;31.37
52032;BME280;38044;45.148;39.604;2022-07-05T12:25:18;100870.72;;;33.32;32.12
52032;BME280;38044;45.148;39.604;2022-07-05T12:27:45;100884.19;;;33.33;32.92
52032;BME280;38044;45.148;39.604;2022-07-05T12:30:13;100853.63;;;33.17;32.26
52032;BME280;38044;45.148;39.604;2022-07-05T12:35:30;100797.59;;;32.98;33.48
52032;BME280;38044;45.148;39.604;2022-07-05T12:38:01;100842.50;;;33.17;32.93
52032;BME280;38044;45.148;39.604;2022-07-05T12:40:27;100875.53;;;33.31;32.13
52032;BME280;38044;45.148;39.604;2022-07-05T12:43:11;100887.38;;;33.19;33.52
52032;BME280;38044;45.148;39.604;2022-07-05T12:45:39;100799.44;;;32.60;33.64
52032;BME280;38044;45.148;39.604;2022-07-05T12:48:07;100856.44;;;33.01;33.38
52032;BME280;38044;45.148;39.604;2022-07-05T12:50:51;100777.72;;;32.55;32.59
52032;BME280;38044;45.148;39.604;2022-07-05T12:53:20;100826.59;;;32.85;32.40
52032;BME280;38044;45.148;39.604;2022-07-05T12:56:12;100865.03;;;33.23;32.38
52032;BME280;38044;45.148;39.604;2022-07-05T12:58:57;100859.19;;;33.17;32.82
52032;BME280;38044;45.148;39.604;2022-07-05T13:01:26;100843.22;;;32.88;32.69
52032;BME280;38044;45.148;39.604;2022-07-05T13:04:12;100843.22;;;32.88;32.93
52032;BME280;38044;45.148;39.604;2022-07-05T13:06:59;100836.88;;;32.88;33.18
52032;BME280;38044;45.148;39.604;2022-07-05T13:09:33;100857.47;;;32.90;34.02
52032;BME280;38044;45.148;39.604;2022-07-05T13:12:17;100845.03;;;32.95;33.89
52032;BME280;38044;45.148;39.604;2022-07-05T13:14:48;100840.78;;;32.90;33.74
52032;BME280;38044;45.148;39.604;2022-07-05T13:17:16;100861.28;;;32.96;33.15